»·PEaware :: AMMO11 KEND-KEND

AMMO11 :: KEND-KEND

FLIGHT INFORMATION

Flight Status: Arrived
Operator: Unknown
More flights by this operator :: More flights under this callsign
Pilot: Harold M. (22202)
Aircraft: BEECH AIRCRAFT T-6A TEXAN
(TEX2)
More flights by this aircraft type
Origin: KEND Vance AFB
United States
Destination: KEND Vance AFB
United States
More flights between these airports :: More routes between these airports
Route: +PNC F22 END8
File this flight plan on PilotEdge
Remarks:
Altitude:
(Current/Filed)
0ft
Speed:
(Current/Filed)
0kts
Departed: 22-Sep-20 06:19 AM
Arrived: 22-Sep-20 07:02 AM
Distance/Time
Traveled:
1nm/0:43
Distance/Time
To Go:
Arrived

Flight Plot

Page will automatically refresh every two minutes.

Flight plan parsing failed; only flown route is shown


Map Options




Map Legend


Flown Route
Filed Route
Departure Airport
Arrival Airport
Navaid (VOR, NDB)
Fix

Horizontal Profiles

Position Reports

Time Latitude Longitude Heading Altitude Ground
Speed
22-Sep-20 06:05 36.332889 -97.911461 215 1291ft 0kts
22-Sep-20 06:06 36.332889 -97.911461 215 1291ft 0kts
22-Sep-20 06:07 36.333702 -97.909737 215 1291ft 0kts
22-Sep-20 06:08 36.333702 -97.909737 215 1291ft 0kts
22-Sep-20 06:09 36.333702 -97.909737 215 1291ft 0kts
22-Sep-20 06:10 36.333702 -97.909737 215 1291ft 0kts
22-Sep-20 06:11 36.333702 -97.909737 215 1291ft 0kts
22-Sep-20 06:12 36.333702 -97.909737 215 1291ft 0kts
22-Sep-20 06:13 36.333702 -97.909737 215 1291ft 0kts
22-Sep-20 06:14 36.333702 -97.909737 215 1291ft 0kts
22-Sep-20 06:15 36.333618 -97.909856 274 1291ft 0kts
22-Sep-20 06:16 36.333618 -97.909856 274 1291ft 0kts
22-Sep-20 06:17 36.333315 -97.910978 279 1291ft 5kts
22-Sep-20 06:18 36.356761 -97.911112 358 1703ft 180kts
22-Sep-20 06:19 36.409965 -97.904071 21 4414ft 202kts
22-Sep-20 06:20 36.423586 -97.833429 96 5266ft 219kts
22-Sep-20 06:21 36.419367 -97.755595 84 5041ft 233kts
22-Sep-20 06:22 36.427560 -97.677029 86 4933ft 245kts
22-Sep-20 06:23 36.442935 -97.597749 68 4826ft 235kts
22-Sep-20 06:24 36.487551 -97.541952 40 4901ft 225kts
22-Sep-20 06:25 36.542788 -97.501021 31 4988ft 221kts
22-Sep-20 06:26 36.587551 -97.444279 64 4845ft 231kts
22-Sep-20 06:27 36.607021 -97.369301 75 4937ft 229kts
22-Sep-20 06:28 36.628029 -97.293257 73 4839ft 231kts
22-Sep-20 06:29 36.648775 -97.217443 75 4840ft 228kts
22-Sep-20 06:30 36.671622 -97.139558 68 4233ft 243kts
22-Sep-20 06:31 36.723884 -97.099577 0 1967ft 224kts
22-Sep-20 06:32 36.713999 -97.108376 162 1736ft 105kts
22-Sep-20 06:33 36.739586 -97.099597 358 1222ft 157kts
22-Sep-20 06:34 36.788832 -97.093818 39 4285ft 186kts
22-Sep-20 06:35 36.742606 -97.081893 188 4881ft 231kts
22-Sep-20 06:36 36.680538 -97.099821 204 4487ft 210kts
22-Sep-20 06:37 36.625781 -97.128012 201 4337ft 213kts
22-Sep-20 06:38 36.571917 -97.154008 207 4541ft 200kts
22-Sep-20 06:39 36.522079 -97.184581 212 4694ft 201kts
22-Sep-20 06:40 36.476100 -97.225800 220 4611ft 204kts
22-Sep-20 06:41 36.436197 -97.276554 242 3857ft 194kts
22-Sep-20 06:42 36.388328 -97.286733 181 2218ft 166kts
22-Sep-20 06:43 36.381729 -97.277185 356 1013ft 110kts
22-Sep-20 06:44 36.382859 -97.285149 182 1925ft 113kts
22-Sep-20 06:45 36.382724 -97.277164 354 998ft 108kts
22-Sep-20 06:46 36.424953 -97.279667 349 2784ft 184kts
22-Sep-20 06:47 36.433872 -97.332666 264 4784ft 197kts
22-Sep-20 06:48 36.428593 -97.409648 265 4362ft 238kts
22-Sep-20 06:49 36.427426 -97.491010 271 4477ft 232kts
22-Sep-20 06:50 36.425341 -97.570041 256 5812ft 228kts
22-Sep-20 06:51 36.407754 -97.649870 254 5956ft 241kts
22-Sep-20 06:52 36.390545 -97.731522 254 6016ft 238kts
22-Sep-20 06:53 36.359603 -97.797623 186 5016ft 252kts
22-Sep-20 06:54 36.297504 -97.801102 183 5005ft 207kts
22-Sep-20 06:55 36.237010 -97.813083 202 4341ft 232kts
22-Sep-20 06:56 36.203612 -97.871800 266 2204ft 218kts
22-Sep-20 06:57 36.248648 -97.907415 356 2092ft 234kts
22-Sep-20 06:58 36.311596 -97.911155 359 2297ft 229kts
22-Sep-20 06:59 36.332968 -97.895871 178 2248ft 103kts
22-Sep-20 07:00 36.336673 -97.910842 356 1289ft 100kts
22-Sep-20 07:01 36.346618 -97.909318 138 1280ft 12kts
22-Sep-20 07:02 36.345993 -97.908904 154 1281ft 0kts
22-Sep-20 07:03 36.345993 -97.908904 154 1281ft 0kts

Navigation Log

Ident Type
Flight plan parsing failed, navigation log unavailable